createdAt,value
2022-07-28T00:07:01.064Z,10.2
2022-07-28T00:14:33.446Z,10.2
2022-07-28T00:22:05.780Z,10.2
2022-07-28T00:29:49.686Z,10.2
2022-07-28T00:37:20.517Z,10.2
2022-07-28T00:44:52.893Z,10.2
2022-07-28T00:52:25.220Z,10.2
2022-07-28T00:59:57.529Z,10.2
2022-07-28T01:07:29.860Z,10.6
2022-07-28T01:15:02.219Z,10.6
2022-07-28T01:22:34.565Z,10.6
2022-07-28T01:30:06.877Z,10.6
2022-07-28T01:37:39.187Z,10.6
2022-07-28T01:45:11.506Z,10.6
2022-07-28T01:52:43.834Z,10.6
2022-07-28T02:00:16.157Z,10.6
2022-07-28T02:07:48.461Z,8.4
2022-07-28T02:15:20.890Z,8.4
2022-07-28T02:22:53.209Z,8.4
2022-07-28T02:30:25.541Z,8.4
2022-07-28T02:37:57.851Z,8.4
2022-07-28T02:45:30.174Z,8.4
2022-07-28T02:53:15.840Z,8.4
2022-07-28T03:00:44.772Z,8.4
2022-07-28T03:08:17.083Z,6.9
2022-07-28T03:15:46.723Z,6.9
2022-07-28T03:16:34.103Z,6.9
2022-07-28T03:17:21.509Z,6.9
2022-07-28T03:18:08.858Z,6.9
2022-07-28T03:18:56.169Z,6.9
2022-07-28T03:26:28.474Z,6.9
2022-07-28T03:34:00.783Z,6.9
2022-07-28T03:41:33.116Z,6.9
2022-07-28T03:49:05.495Z,6.9
2022-07-28T03:56:37.876Z,6.9
2022-07-28T04:04:10.225Z,6.9
2022-07-28T04:11:42.554Z,6.0
2022-07-28T04:19:14.871Z,6.0
2022-07-28T04:22:34.462Z,6.0
2022-07-28T04:23:21.767Z,6.0
2022-07-28T04:24:09.072Z,6.0
2022-07-28T04:24:56.372Z,6.0
2022-07-28T04:25:43.704Z,6.0
2022-07-28T04:26:31.020Z,6.0
2022-07-28T04:27:18.403Z,6.0
2022-07-28T04:28:05.719Z,6.0
2022-07-28T04:28:53.062Z,6.0
2022-07-28T04:29:40.370Z,6.0
2022-07-28T04:30:27.837Z,6.0
2022-07-28T04:31:15.314Z,6.0
2022-07-28T04:32:02.807Z,6.0
2022-07-28T04:32:50.117Z,6.0
2022-07-28T04:33:37.689Z,6.0
2022-07-28T04:34:25.009Z,6.0
2022-07-28T04:35:17.144Z,6.0
2022-07-28T04:36:04.939Z,6.0
2022-07-28T04:36:52.371Z,6.0
2022-07-28T04:37:39.738Z,6.0
2022-07-28T04:38:27.072Z,6.0
2022-07-28T04:39:14.481Z,6.0
2022-07-28T04:40:01.794Z,6.0
2022-07-28T04:40:49.096Z,6.0
2022-07-28T04:41:36.540Z,6.0
2022-07-28T04:42:23.940Z,6.0
2022-07-28T04:43:11.323Z,6.0
2022-07-28T04:43:58.787Z,6.0
2022-07-28T04:44:46.096Z,6.0
2022-07-28T04:45:33.454Z,6.0
2022-07-28T04:46:20.893Z,6.0
2022-07-28T04:47:08.220Z,6.0
2022-07-28T04:47:55.526Z,6.0
2022-07-28T04:48:43.020Z,6.0
2022-07-28T04:49:30.393Z,6.0
2022-07-28T04:50:22.884Z,6.0
2022-07-28T04:51:10.298Z,6.0
2022-07-28T04:51:57.601Z,6.0
2022-07-28T04:52:44.930Z,6.0
2022-07-28T04:53:32.306Z,6.0
2022-07-28T04:54:24.525Z,6.0
2022-07-28T04:55:13.758Z,6.0
2022-07-28T04:56:01.131Z,6.0
2022-07-28T04:56:49.769Z,6.0
2022-07-28T04:57:37.199Z,6.0
2022-07-28T04:58:24.729Z,6.0
2022-07-28T04:59:12.594Z,6.0
2022-07-28T05:00:01.706Z,7.6
2022-07-28T05:00:50.356Z,7.6
2022-07-28T05:01:37.990Z,7.6
2022-07-28T05:02:25.352Z,7.6
2022-07-28T05:03:12.666Z,7.6
2022-07-28T05:03:59.982Z,7.6
2022-07-28T05:04:47.434Z,7.6
2022-07-28T05:05:34.799Z,7.6
2022-07-28T05:06:22.134Z,7.6
2022-07-28T05:07:12.800Z,7.6
2022-07-28T05:08:00.713Z,7.6
2022-07-28T05:08:48.125Z,7.6
2022-07-28T05:09:35.562Z,7.6
2022-07-28T05:10:22.869Z,7.6
2022-07-28T05:11:10.233Z,7.6
2022-07-28T05:11:57.562Z,7.6
2022-07-28T05:12:44.874Z,7.6
2022-07-28T05:13:34.260Z,7.6
2022-07-28T05:14:21.772Z,7.6
2022-07-28T05:15:09.073Z,7.6
2022-07-28T05:15:56.387Z,7.6
2022-07-28T05:16:43.772Z,7.6
2022-07-28T05:17:33.181Z,7.6
2022-07-28T05:18:20.498Z,7.6
2022-07-28T05:19:07.807Z,7.6
2022-07-28T05:19:55.163Z,7.6
2022-07-28T05:20:42.514Z,7.6
2022-07-28T05:21:29.978Z,7.6
2022-07-28T05:22:17.306Z,7.6
2022-07-28T05:23:04.610Z,7.6
2022-07-28T05:23:51.939Z,7.6
2022-07-28T05:24:39.258Z,7.6
2022-07-28T05:25:26.720Z,7.6
2022-07-28T05:26:14.049Z,7.6
2022-07-28T05:27:01.373Z,7.6
2022-07-28T05:27:48.703Z,7.6
2022-07-28T05:28:36.017Z,7.6
2022-07-28T05:29:23.475Z,7.6
2022-07-28T05:30:10.773Z,7.6
2022-07-28T05:30:58.088Z,7.6
2022-07-28T05:31:45.430Z,7.6
2022-07-28T05:32:32.809Z,7.6
2022-07-28T05:33:20.132Z,7.6
2022-07-28T05:34:07.442Z,7.6
2022-07-28T05:34:54.767Z,7.6
2022-07-28T05:35:42.086Z,7.6
2022-07-28T05:36:29.413Z,7.6
2022-07-28T05:37:16.709Z,7.6
2022-07-28T05:38:07.558Z,7.6
2022-07-28T05:38:58.034Z,7.6
2022-07-28T05:39:45.459Z,7.6
2022-07-28T05:40:32.775Z,7.6
2022-07-28T05:41:20.082Z,7.6
2022-07-28T05:42:07.647Z,7.6
2022-07-28T05:42:54.962Z,7.6
2022-07-28T05:43:42.274Z,7.6
2022-07-28T05:44:32.493Z,7.6
2022-07-28T05:45:23.253Z,7.6
2022-07-28T05:46:10.700Z,7.6
2022-07-28T05:46:58.094Z,7.6
2022-07-28T05:47:45.393Z,7.6
2022-07-28T05:48:32.820Z,7.6
2022-07-28T05:49:20.208Z,7.6
2022-07-28T05:50:07.562Z,7.6
2022-07-28T05:50:54.989Z,7.6
2022-07-28T05:51:42.285Z,7.6
2022-07-28T05:52:29.598Z,7.6
2022-07-28T05:53:17.019Z,7.6
2022-07-28T05:54:04.388Z,7.6
2022-07-28T05:54:51.700Z,7.6
2022-07-28T05:56:00.515Z,7.6
2022-07-28T05:56:36.409Z,7.6
2022-07-28T05:57:23.838Z,7.6
2022-07-28T05:58:11.145Z,7.6
2022-07-28T05:58:58.466Z,7.6
2022-07-28T05:59:45.874Z,7.3
2022-07-28T06:00:33.191Z,7.3
2022-07-28T06:01:20.526Z,7.3
2022-07-28T06:02:07.971Z,7.3
2022-07-28T06:02:55.361Z,7.3
2022-07-28T06:03:42.861Z,7.3
2022-07-28T06:04:30.516Z,7.3
2022-07-28T06:05:18.213Z,7.3
2022-07-28T06:06:16.350Z,7.3
2022-07-28T06:07:02.798Z,7.3
2022-07-28T06:07:50.237Z,7.3
2022-07-28T06:08:37.583Z,7.3
2022-07-28T06:09:24.886Z,7.3
2022-07-28T06:10:12.326Z,7.3
2022-07-28T06:10:59.621Z,7.3
2022-07-28T06:11:46.939Z,7.3
2022-07-28T06:12:34.353Z,7.3
2022-07-28T06:13:21.665Z,7.3
2022-07-28T06:14:09.385Z,7.3
2022-07-28T06:14:56.708Z,7.3
2022-07-28T06:15:44.103Z,7.3
2022-07-28T06:16:31.484Z,7.3
2022-07-28T06:17:18.835Z,7.3
2022-07-28T06:18:06.150Z,7.3
2022-07-28T06:18:53.467Z,7.3
2022-07-28T06:19:40.806Z,7.3
2022-07-28T06:20:28.683Z,7.3
2022-07-28T06:21:16.054Z,7.3
2022-07-28T06:22:03.416Z,7.3
2022-07-28T06:22:50.728Z,7.3
2022-07-28T06:23:38.036Z,7.3
2022-07-28T06:24:25.341Z,7.3
2022-07-28T06:25:12.674Z,7.3
2022-07-28T06:26:00.029Z,7.3
2022-07-28T06:26:47.350Z,7.3
2022-07-28T06:27:34.679Z,7.3
2022-07-28T06:28:22.013Z,7.3
2022-07-28T06:29:09.338Z,7.3
2022-07-28T06:29:56.639Z,7.3
2022-07-28T06:30:44.016Z,7.3
2022-07-28T06:31:31.587Z,7.3
2022-07-28T06:32:18.951Z,7.3
2022-07-28T06:33:06.262Z,7.3
2022-07-28T06:33:53.554Z,7.3
2022-07-28T06:34:40.862Z,7.3
2022-07-28T06:35:28.160Z,7.3
2022-07-28T06:36:15.493Z,7.3
2022-07-28T06:37:02.802Z,7.3
2022-07-28T06:37:50.125Z,7.3
2022-07-28T06:38:37.457Z,7.3
2022-07-28T06:39:24.782Z,7.3
2022-07-28T06:40:12.249Z,7.3
2022-07-28T06:40:59.553Z,7.3
2022-07-28T06:41:46.860Z,7.3
2022-07-28T06:42:34.161Z,7.3
2022-07-28T06:43:21.484Z,7.3
2022-07-28T06:44:08.817Z,7.3
2022-07-28T06:44:59.409Z,7.3
2022-07-28T06:45:47.268Z,7.3
2022-07-28T06:46:34.666Z,7.3
2022-07-28T06:47:21.995Z,7.3
2022-07-28T06:48:09.309Z,7.3
2022-07-28T06:48:56.892Z,7.3
2022-07-28T06:49:45.333Z,7.3
2022-07-28T06:50:32.724Z,7.3
2022-07-28T06:51:20.136Z,7.3
2022-07-28T06:52:07.553Z,7.3
2022-07-28T06:52:54.870Z,7.3
2022-07-28T06:53:42.405Z,7.3
2022-07-28T06:54:29.926Z,7.3
2022-07-28T06:55:17.251Z,7.3
2022-07-28T06:56:04.573Z,7.3
2022-07-28T06:56:52.597Z,7.3
2022-07-28T06:57:40.029Z,7.3
2022-07-28T06:58:27.333Z,7.3
2022-07-28T06:59:14.900Z,7.3
2022-07-28T07:00:02.460Z,7.3
2022-07-28T07:00:49.943Z,7.3
2022-07-28T07:01:37.329Z,7.3
2022-07-28T07:02:28.045Z,7.3
2022-07-28T07:03:15.550Z,7.3
2022-07-28T07:04:03.048Z,7.3
2022-07-28T07:04:50.391Z,7.3
2022-07-28T07:05:37.688Z,7.3
2022-07-28T07:06:25.141Z,7.3
2022-07-28T07:07:16.841Z,7.3
2022-07-28T07:08:04.647Z,7.3
2022-07-28T07:08:52.067Z,7.3
2022-07-28T07:09:39.378Z,7.3
2022-07-28T07:10:26.790Z,7.3
2022-07-28T07:11:14.105Z,7.3
2022-07-28T07:12:01.433Z,7.3
2022-07-28T07:12:48.741Z,7.3
2022-07-28T07:13:36.161Z,7.3
2022-07-28T07:14:23.465Z,7.3
2022-07-28T07:15:10.771Z,7.3
2022-07-28T07:15:58.313Z,7.3
2022-07-28T07:16:45.750Z,7.3
2022-07-28T07:17:33.096Z,7.3
2022-07-28T07:18:20.509Z,7.3
2022-07-28T07:19:10.444Z,7.3
2022-07-28T07:19:59.953Z,7.3
2022-07-28T07:20:47.326Z,7.3
2022-07-28T07:21:34.658Z,7.3
2022-07-28T07:22:21.980Z,7.3
2022-07-28T07:23:09.376Z,7.3
2022-07-28T07:23:56.686Z,7.3
2022-07-28T07:24:44.000Z,7.3
2022-07-28T07:25:31.386Z,7.3
2022-07-28T07:26:18.701Z,7.3
2022-07-28T07:27:06.033Z,7.3
2022-07-28T07:27:53.470Z,7.3
2022-07-28T07:28:40.788Z,7.3
2022-07-28T07:29:29.630Z,7.3
2022-07-28T07:30:17.941Z,7.3
2022-07-28T07:31:05.334Z,7.3
2022-07-28T07:31:53.548Z,7.3
2022-07-28T07:32:41.137Z,7.3
2022-07-28T07:33:28.563Z,7.3
2022-07-28T07:34:16.099Z,7.3
2022-07-28T07:35:03.730Z,7.3
2022-07-28T07:35:51.141Z,7.3
2022-07-28T07:36:38.440Z,7.3
2022-07-28T07:37:25.757Z,7.3
2022-07-28T07:38:13.180Z,7.3
2022-07-28T07:39:00.507Z,7.3
2022-07-28T07:39:47.829Z,7.3
2022-07-28T07:40:35.278Z,7.3
2022-07-28T07:41:22.616Z,7.3
2022-07-28T07:42:09.918Z,7.3
2022-07-28T07:42:57.353Z,7.3
2022-07-28T07:43:47.730Z,7.3
2022-07-28T07:44:35.749Z,7.3
2022-07-28T07:45:23.054Z,7.3
2022-07-28T07:46:10.447Z,7.3
2022-07-28T07:46:57.890Z,7.3
2022-07-28T07:47:45.335Z,7.3
2022-07-28T07:48:32.713Z,7.3
2022-07-28T07:49:20.171Z,7.3
2022-07-28T07:50:07.576Z,7.3
2022-07-28T07:50:54.885Z,7.3
2022-07-28T07:51:42.210Z,7.3
2022-07-28T07:52:29.530Z,7.3
2022-07-28T07:53:16.833Z,7.3
2022-07-28T07:54:04.168Z,7.3
2022-07-28T07:54:51.487Z,7.3
2022-07-28T07:55:38.818Z,7.3
2022-07-28T07:56:26.131Z,7.3
2022-07-28T07:57:13.473Z,7.3
2022-07-28T07:58:00.789Z,7.3
2022-07-28T07:58:48.102Z,7.3
2022-07-28T07:59:35.457Z,7.3
2022-07-28T08:00:28.588Z,7.8
2022-07-28T08:01:16.707Z,7.8
2022-07-28T08:02:04.151Z,7.8
2022-07-28T08:02:51.476Z,7.8
2022-07-28T08:03:38.961Z,7.8
2022-07-28T08:04:26.688Z,7.8
2022-07-28T08:05:16.136Z,7.8
2022-07-28T08:06:05.622Z,7.8
2022-07-28T08:06:52.946Z,7.8
2022-07-28T08:07:40.268Z,7.8
2022-07-28T08:08:27.945Z,7.8
2022-07-28T08:09:15.262Z,7.8
2022-07-28T08:10:02.568Z,7.8
2022-07-28T08:10:49.910Z,7.8
2022-07-28T08:11:37.214Z,7.8
2022-07-28T08:12:25.362Z,7.8
2022-07-28T08:13:12.968Z,7.8
2022-07-28T08:14:00.293Z,7.8
2022-07-28T08:14:47.735Z,7.8
2022-07-28T08:15:35.234Z,7.8
2022-07-28T08:16:22.698Z,7.8
2022-07-28T08:17:10.157Z,7.8
2022-07-28T08:17:57.495Z,7.8
2022-07-28T08:18:44.929Z,7.8
2022-07-28T08:19:32.274Z,7.8
2022-07-28T08:20:19.581Z,7.8
2022-07-28T08:21:07.033Z,7.8
2022-07-28T08:21:54.390Z,7.8
2022-07-28T08:22:41.698Z,7.8
2022-07-28T08:23:29.109Z,7.8
2022-07-28T08:24:32.888Z,7.8
2022-07-28T08:25:13.710Z,7.8
2022-07-28T08:26:01.123Z,7.8
2022-07-28T08:26:48.453Z,7.8
2022-07-28T08:27:35.781Z,7.8
2022-07-28T08:28:23.190Z,7.8
2022-07-28T08:29:11.421Z,7.8
2022-07-28T08:29:58.752Z,7.8
2022-07-28T08:30:46.061Z,7.8
2022-07-28T08:31:33.568Z,7.8
2022-07-28T08:32:22.868Z,7.8
2022-07-28T08:33:10.223Z,7.8
2022-07-28T08:33:57.526Z,7.8
2022-07-28T08:34:44.838Z,7.8
2022-07-28T08:35:35.023Z,7.8
2022-07-28T08:36:22.795Z,7.8
2022-07-28T08:37:10.206Z,7.8
2022-07-28T08:37:57.531Z,7.8
2022-07-28T08:38:45.786Z,7.8
2022-07-28T08:39:33.202Z,7.8
2022-07-28T08:40:23.475Z,7.8
2022-07-28T08:41:14.520Z,7.8
2022-07-28T08:42:01.900Z,7.8
2022-07-28T08:42:49.205Z,7.8
2022-07-28T08:43:36.512Z,7.8
2022-07-28T08:44:23.934Z,7.8
2022-07-28T08:45:11.243Z,7.8
2022-07-28T08:45:58.921Z,7.8
2022-07-28T08:46:46.333Z,7.8
2022-07-28T08:47:45.948Z,7.8
2022-07-28T08:48:30.983Z,7.8
2022-07-28T08:49:18.428Z,7.8
2022-07-28T08:50:05.802Z,7.8
2022-07-28T08:50:53.127Z,7.8
2022-07-28T08:51:40.529Z,7.8
2022-07-28T08:52:27.873Z,7.8
2022-07-28T08:53:15.223Z,7.8
2022-07-28T08:54:02.640Z,7.8
2022-07-28T08:54:50.840Z,7.8
2022-07-28T08:55:38.226Z,7.8
2022-07-28T08:56:25.577Z,7.8
2022-07-28T08:57:13.010Z,7.8
2022-07-28T08:58:00.485Z,7.8
2022-07-28T08:58:47.985Z,7.8
2022-07-28T08:59:35.414Z,7.8
2022-07-28T09:00:22.752Z,17.9
2022-07-28T09:01:10.107Z,17.9
2022-07-28T09:01:57.984Z,17.9
2022-07-28T09:02:45.667Z,17.9
2022-07-28T09:03:33.189Z,17.9
2022-07-28T09:04:20.565Z,17.9
2022-07-28T09:05:08.210Z,17.9
2022-07-28T09:05:55.536Z,17.9
2022-07-28T09:06:42.891Z,17.9
2022-07-28T09:07:30.288Z,17.9
2022-07-28T09:08:17.613Z,17.9
2022-07-28T09:09:04.954Z,17.9
2022-07-28T09:09:52.369Z,17.9
2022-07-28T09:10:44.880Z,17.9
2022-07-28T09:11:32.246Z,17.9
2022-07-28T09:12:19.584Z,17.9
2022-07-28T09:13:14.673Z,17.9
2022-07-28T09:14:02.108Z,17.9
2022-07-28T09:14:49.446Z,17.9
2022-07-28T09:15:36.802Z,17.9
2022-07-28T09:16:24.368Z,17.9
2022-07-28T09:17:11.720Z,17.9
2022-07-28T09:17:59.037Z,17.9
2022-07-28T09:18:46.460Z,17.9
2022-07-28T09:19:34.094Z,17.9
2022-07-28T09:20:23.064Z,17.9
2022-07-28T09:21:10.494Z,17.9
2022-07-28T09:21:57.835Z,17.9
2022-07-28T09:22:45.173Z,17.9
2022-07-28T09:23:42.047Z,17.9
2022-07-28T09:24:30.026Z,17.9
2022-07-28T09:25:17.391Z,17.9
2022-07-28T09:26:09.978Z,17.9
2022-07-28T09:26:58.101Z,17.9
2022-07-28T09:27:45.497Z,17.9
2022-07-28T09:28:32.836Z,17.9
2022-07-28T09:29:20.150Z,17.9
2022-07-28T09:30:07.606Z,17.9
2022-07-28T09:30:54.973Z,17.9
2022-07-28T09:31:42.409Z,17.9
2022-07-28T09:32:29.814Z,17.9
2022-07-28T09:33:42.452Z,17.9
2022-07-28T09:34:14.854Z,17.9
2022-07-28T09:35:02.399Z,17.9
2022-07-28T09:35:49.892Z,17.9
2022-07-28T09:36:37.230Z,17.9
2022-07-28T09:37:27.339Z,17.9
2022-07-28T09:38:14.886Z,17.9
2022-07-28T09:39:02.307Z,17.9
2022-07-28T09:39:49.624Z,17.9
2022-07-28T09:40:36.925Z,17.9
2022-07-28T09:41:24.379Z,17.9
2022-07-28T09:42:11.700Z,17.9
2022-07-28T09:42:59.037Z,17.9
2022-07-28T09:43:49.775Z,17.9
2022-07-28T09:44:50.672Z,17.9
2022-07-28T09:45:38.618Z,17.9
2022-07-28T09:46:26.497Z,17.9
2022-07-28T09:47:17.045Z,17.9
2022-07-28T09:48:04.726Z,17.9
2022-07-28T09:48:52.406Z,17.9
2022-07-28T09:49:40.239Z,17.9
2022-07-28T09:50:27.593Z,17.9
2022-07-28T09:51:14.905Z,17.9
2022-07-28T09:52:02.246Z,17.9
2022-07-28T09:52:49.570Z,17.9
2022-07-28T09:53:36.909Z,17.9
2022-07-28T09:54:24.237Z,17.9
2022-07-28T09:55:11.570Z,17.9
2022-07-28T09:55:58.926Z,17.9
2022-07-28T09:56:46.321Z,17.9
2022-07-28T09:57:33.645Z,17.9
2022-07-28T09:58:24.196Z,17.9
2022-07-28T09:59:14.926Z,17.9
2022-07-28T10:00:02.633Z,19.1
2022-07-28T10:00:50.210Z,19.1
2022-07-28T10:01:37.635Z,19.1
2022-07-28T10:02:26.500Z,19.1
2022-07-28T10:03:14.000Z,19.1
2022-07-28T10:04:02.808Z,19.1
2022-07-28T10:04:50.304Z,19.1
2022-07-28T10:05:37.729Z,19.1
2022-07-28T10:06:25.061Z,19.1
2022-07-28T10:07:12.385Z,19.1
2022-07-28T10:07:59.777Z,19.1
2022-07-28T10:08:47.107Z,19.1
2022-07-28T10:09:34.520Z,19.1
2022-07-28T10:10:21.845Z,19.1
2022-07-28T10:11:09.144Z,19.1
2022-07-28T10:11:56.490Z,19.1
2022-07-28T10:19:28.815Z,19.1
2022-07-28T10:27:01.149Z,19.1
2022-07-28T10:34:33.487Z,19.1
2022-07-28T10:42:05.815Z,19.1
2022-07-28T10:49:38.181Z,19.1
2022-07-28T10:54:29.908Z,19.1
2022-07-28T10:55:17.222Z,19.1
2022-07-28T10:56:07.842Z,19.1
2022-07-28T10:56:57.143Z,19.1
2022-07-28T10:57:46.174Z,19.1
2022-07-28T10:58:43.489Z,19.1
2022-07-28T10:59:33.319Z,19.1
2022-07-28T11:00:26.172Z,14.2
2022-07-28T11:01:32.380Z,14.2
2022-07-28T11:02:11.006Z,14.2
2022-07-28T11:02:59.185Z,14.2
2022-07-28T11:03:48.078Z,14.2
2022-07-28T11:04:35.458Z,14.2
2022-07-28T11:05:22.777Z,14.2
2022-07-28T11:06:10.099Z,14.2
2022-07-28T11:06:57.415Z,14.2
2022-07-28T11:07:44.725Z,14.2
2022-07-28T11:08:32.039Z,14.2
2022-07-28T11:09:19.362Z,14.2
2022-07-28T11:10:06.668Z,14.2
2022-07-28T11:10:58.888Z,14.2
2022-07-28T11:11:51.294Z,14.2
2022-07-28T11:12:39.201Z,14.2
2022-07-28T11:13:29.000Z,14.2
2022-07-28T11:14:16.861Z,14.2
2022-07-28T11:15:15.701Z,14.2
2022-07-28T11:16:02.204Z,14.2
2022-07-28T11:16:49.645Z,14.2
2022-07-28T11:17:37.687Z,14.2
2022-07-28T11:18:29.162Z,14.2
2022-07-28T11:19:42.318Z,14.2
2022-07-28T11:20:24.926Z,14.2
2022-07-28T11:21:11.269Z,14.2
2022-07-28T11:22:03.954Z,14.2
2022-07-28T11:22:52.300Z,14.2
2022-07-28T11:23:39.628Z,14.2
2022-07-28T11:24:26.949Z,14.2
2022-07-28T11:25:18.554Z,14.2
2022-07-28T11:26:08.717Z,14.2
2022-07-28T11:26:59.909Z,14.2
2022-07-28T11:27:49.620Z,14.2
2022-07-28T11:28:37.066Z,14.2
2022-07-28T11:29:24.373Z,14.2
2022-07-28T11:30:11.689Z,14.2
2022-07-28T11:30:59.184Z,14.2
2022-07-28T11:31:46.573Z,14.2
2022-07-28T11:32:42.274Z,14.2
2022-07-28T11:33:31.190Z,14.2
2022-07-28T11:34:18.610Z,14.2
2022-07-28T11:35:05.915Z,14.2
2022-07-28T11:35:53.276Z,14.2
2022-07-28T11:36:40.629Z,14.2
2022-07-28T11:37:27.950Z,14.2
2022-07-28T11:38:15.262Z,14.2
2022-07-28T11:39:02.664Z,14.2
2022-07-28T11:39:49.996Z,14.2
2022-07-28T11:40:37.321Z,14.2
2022-07-28T11:41:24.732Z,14.2
2022-07-28T11:42:12.721Z,14.2
2022-07-28T11:43:01.048Z,14.2
2022-07-28T11:43:49.934Z,14.2
2022-07-28T11:44:37.403Z,14.2
2022-07-28T11:45:37.471Z,14.2
2022-07-28T11:46:22.034Z,14.2
2022-07-28T11:47:10.269Z,14.2
2022-07-28T11:47:57.582Z,14.2
2022-07-28T11:48:45.117Z,14.2
2022-07-28T11:49:32.616Z,14.2
2022-07-28T11:50:20.000Z,14.2
2022-07-28T11:51:07.341Z,14.2
2022-07-28T11:51:54.686Z,14.2
2022-07-28T11:52:42.997Z,14.2
2022-07-28T11:53:30.309Z,14.2
2022-07-28T11:54:17.757Z,14.2
2022-07-28T11:55:05.109Z,14.2
2022-07-28T11:56:02.412Z,14.2
2022-07-28T11:56:49.842Z,14.2
2022-07-28T11:57:37.218Z,14.2
2022-07-28T11:58:24.521Z,14.2
2022-07-28T11:59:13.202Z,14.2
2022-07-28T12:00:00.560Z,10.9
2022-07-28T12:00:47.867Z,10.9
2022-07-28T12:01:38.367Z,10.9
2022-07-28T12:02:26.244Z,10.9
2022-07-28T12:03:13.665Z,10.9
2022-07-28T12:04:01.138Z,10.9
2022-07-28T12:04:48.628Z,10.9
2022-07-28T12:05:41.642Z,10.9
2022-07-28T12:06:29.960Z,10.9
2022-07-28T12:07:17.284Z,10.9
2022-07-28T12:08:04.747Z,10.9
2022-07-28T12:08:52.066Z,10.9
2022-07-28T12:09:42.620Z,10.9
2022-07-28T12:10:53.805Z,10.9
2022-07-28T12:11:27.368Z,10.9
2022-07-28T12:12:14.820Z,10.9
2022-07-28T12:13:02.130Z,10.9
2022-07-28T12:13:49.486Z,10.9
2022-07-28T12:14:39.064Z,10.9
2022-07-28T12:15:26.525Z,10.9
2022-07-28T12:16:13.882Z,10.9
2022-07-28T12:17:01.300Z,10.9
2022-07-28T12:17:48.701Z,10.9
2022-07-28T12:18:36.026Z,10.9
2022-07-28T12:19:24.123Z,10.9
2022-07-28T12:20:20.438Z,10.9
2022-07-28T12:21:08.040Z,10.9
2022-07-28T12:21:56.521Z,10.9
2022-07-28T12:22:43.885Z,10.9
2022-07-28T12:23:34.894Z,10.9
2022-07-28T12:24:28.563Z,10.9
2022-07-28T12:25:16.786Z,10.9
2022-07-28T12:26:07.451Z,10.9
2022-07-28T12:26:57.535Z,10.9
2022-07-28T12:27:45.967Z,10.9
2022-07-28T12:28:33.335Z,10.9
2022-07-28T12:29:20.976Z,10.9
2022-07-28T12:30:08.337Z,10.9
2022-07-28T12:30:55.686Z,10.9
2022-07-28T12:31:43.055Z,10.9
2022-07-28T12:32:30.446Z,10.9
2022-07-28T12:33:17.762Z,10.9
2022-07-28T12:34:05.101Z,10.9
2022-07-28T12:34:52.425Z,10.9
2022-07-28T12:35:39.765Z,10.9
2022-07-28T12:36:27.101Z,10.9
2022-07-28T12:37:14.423Z,10.9
2022-07-28T12:38:01.736Z,10.9
2022-07-28T12:38:49.058Z,10.9
2022-07-28T12:39:36.396Z,10.9
2022-07-28T12:40:27.591Z,10.9
2022-07-28T12:41:15.086Z,10.9
2022-07-28T12:42:02.434Z,10.9
2022-07-28T12:42:52.014Z,10.9
2022-07-28T12:43:41.034Z,10.9
2022-07-28T12:44:28.439Z,10.9
2022-07-28T12:45:15.742Z,10.9
2022-07-28T12:46:03.133Z,10.9
2022-07-28T12:46:50.511Z,10.9
2022-07-28T12:47:37.838Z,10.9
2022-07-28T12:48:26.426Z,10.9
2022-07-28T12:49:13.898Z,10.9
2022-07-28T12:50:06.526Z,10.9
2022-07-28T12:50:54.247Z,10.9
2022-07-28T12:51:41.657Z,10.9
2022-07-28T12:52:28.978Z,10.9
2022-07-28T12:53:16.291Z,10.9
2022-07-28T12:54:03.727Z,10.9
2022-07-28T12:54:53.496Z,10.9
2022-07-28T12:55:42.578Z,10.9
2022-07-28T12:56:29.987Z,10.9
2022-07-28T12:57:17.341Z,10.9
2022-07-28T12:58:04.661Z,10.9
2022-07-28T12:58:52.063Z,10.9
2022-07-28T12:59:39.369Z,10.9
2022-07-28T13:00:27.123Z,10.8
2022-07-28T13:01:14.503Z,10.8
2022-07-28T13:02:02.142Z,10.8
2022-07-28T13:02:49.615Z,10.8
2022-07-28T13:03:36.992Z,10.8
2022-07-28T13:04:24.397Z,10.8
2022-07-28T13:05:11.704Z,10.8
2022-07-28T13:06:01.225Z,10.8
2022-07-28T13:06:48.642Z,10.8
2022-07-28T13:07:36.184Z,10.8
2022-07-28T13:08:23.502Z,10.8
2022-07-28T13:09:15.104Z,10.8
2022-07-28T13:10:02.555Z,10.8
2022-07-28T13:10:51.531Z,10.8
2022-07-28T13:11:47.124Z,10.8
2022-07-28T13:12:34.593Z,10.8
2022-07-28T13:13:22.020Z,10.8
2022-07-28T13:14:09.338Z,10.8
2022-07-28T13:14:56.680Z,10.8
2022-07-28T13:15:44.138Z,10.8
2022-07-28T13:16:31.584Z,10.8
2022-07-28T13:17:18.956Z,10.8
2022-07-28T13:18:06.407Z,10.8
2022-07-28T13:18:53.801Z,10.8
2022-07-28T13:19:41.112Z,10.8
2022-07-28T13:20:28.518Z,10.8
2022-07-28T13:21:15.841Z,10.8
2022-07-28T13:22:08.602Z,10.8
2022-07-28T13:22:56.445Z,10.8
2022-07-28T13:23:43.882Z,10.8
2022-07-28T13:24:31.191Z,10.8
2022-07-28T13:25:18.500Z,10.8
2022-07-28T13:26:05.910Z,10.8
2022-07-28T13:26:53.231Z,10.8
2022-07-28T13:27:40.530Z,10.8
2022-07-28T13:28:27.961Z,10.8
2022-07-28T13:29:15.309Z,10.8
2022-07-28T13:30:02.657Z,10.8
2022-07-28T13:30:50.021Z,10.8
2022-07-28T13:31:37.384Z,10.8
2022-07-28T13:32:24.941Z,10.8
2022-07-28T13:33:14.011Z,10.8
2022-07-28T13:34:01.461Z,10.8
2022-07-28T13:34:48.804Z,10.8
2022-07-28T13:35:36.110Z,10.8
2022-07-28T13:36:23.429Z,10.8
2022-07-28T13:37:10.738Z,10.8
2022-07-28T13:37:58.096Z,10.8
2022-07-28T13:38:45.407Z,10.8
2022-07-28T13:39:32.713Z,10.8
2022-07-28T13:40:20.029Z,10.8
2022-07-28T13:41:07.338Z,10.8
2022-07-28T13:41:58.586Z,10.8
2022-07-28T13:42:53.206Z,10.8
2022-07-28T13:43:43.731Z,10.8
2022-07-28T13:44:35.885Z,10.8
2022-07-28T13:45:23.724Z,10.8
2022-07-28T13:46:11.299Z,10.8
2022-07-28T13:46:59.345Z,10.8
2022-07-28T13:47:46.883Z,10.8
2022-07-28T13:48:39.386Z,10.8
2022-07-28T13:49:36.773Z,10.8
2022-07-28T13:50:24.214Z,10.8
2022-07-28T13:51:11.543Z,10.8
2022-07-28T13:51:58.869Z,10.8
2022-07-28T13:52:48.459Z,10.8
2022-07-28T13:53:35.962Z,10.8
2022-07-28T13:54:26.861Z,10.8
2022-07-28T13:55:17.743Z,10.8
2022-07-28T13:56:07.064Z,10.8
2022-07-28T13:56:54.501Z,10.8
2022-07-28T13:57:42.915Z,10.8
2022-07-28T13:58:30.583Z,10.8
2022-07-28T13:59:18.044Z,10.8
2022-07-28T14:00:05.366Z,12.8
2022-07-28T14:00:55.179Z,12.8
2022-07-28T14:01:42.637Z,12.8
2022-07-28T14:02:30.058Z,12.8
2022-07-28T14:03:17.488Z,12.8
2022-07-28T14:04:04.922Z,12.8
2022-07-28T14:04:52.243Z,12.8
2022-07-28T14:05:39.554Z,12.8
2022-07-28T14:06:27.241Z,12.8
2022-07-28T14:07:14.690Z,12.8
2022-07-28T14:08:08.286Z,12.8
2022-07-28T14:08:55.602Z,12.8
2022-07-28T14:09:43.852Z,12.8
2022-07-28T14:10:35.104Z,12.8
2022-07-28T14:11:22.513Z,12.8
2022-07-28T14:12:09.854Z,12.8
2022-07-28T14:12:57.517Z,12.8
2022-07-28T14:13:45.068Z,12.8
2022-07-28T14:14:32.456Z,12.8
2022-07-28T14:15:19.773Z,12.8
2022-07-28T14:16:12.361Z,12.8
2022-07-28T14:17:10.326Z,12.8
2022-07-28T14:17:58.872Z,12.8
2022-07-28T14:18:46.243Z,12.8
2022-07-28T14:19:38.877Z,12.8
2022-07-28T14:20:27.005Z,12.8
2022-07-28T14:21:14.434Z,12.8
2022-07-28T14:22:01.774Z,12.8
2022-07-28T14:22:49.091Z,12.8
2022-07-28T14:23:36.550Z,12.8
2022-07-28T14:24:23.875Z,12.8
2022-07-28T14:25:11.212Z,12.8
2022-07-28T14:26:25.216Z,12.8
2022-07-28T14:26:55.966Z,12.8
2022-07-28T14:27:43.362Z,12.8
2022-07-28T14:28:30.674Z,12.8
2022-07-28T14:29:17.994Z,12.8
2022-07-28T14:30:05.396Z,12.8
2022-07-28T14:30:52.705Z,12.8
2022-07-28T14:31:40.110Z,12.8
2022-07-28T14:32:27.496Z,12.8
2022-07-28T14:33:14.811Z,12.8
2022-07-28T14:34:02.151Z,12.8
2022-07-28T14:34:49.508Z,12.8
2022-07-28T14:35:36.815Z,12.8
2022-07-28T14:36:24.168Z,12.8
2022-07-28T14:37:11.514Z,12.8
2022-07-28T14:38:56.109Z,12.8
2022-07-28T14:39:43.657Z,12.8
2022-07-28T14:40:30.974Z,12.8
2022-07-28T14:41:18.293Z,12.8
2022-07-28T14:42:05.694Z,12.8
2022-07-28T14:42:53.326Z,12.8
2022-07-28T14:43:40.668Z,12.8
2022-07-28T14:44:28.062Z,12.8
2022-07-28T14:45:15.405Z,12.8
2022-07-28T14:46:16.438Z,12.8
2022-07-28T14:47:00.031Z,12.8
2022-07-28T14:47:47.425Z,12.8
2022-07-28T14:48:34.785Z,12.8
2022-07-28T14:49:22.187Z,12.8
2022-07-28T14:50:09.563Z,12.8
2022-07-28T14:50:56.898Z,12.8
2022-07-28T14:51:44.937Z,12.8
2022-07-28T14:52:32.370Z,12.8
2022-07-28T14:53:19.681Z,12.8
2022-07-28T14:54:06.994Z,12.8
2022-07-28T14:54:54.311Z,12.8
2022-07-28T14:55:41.693Z,12.8
2022-07-28T14:56:29.016Z,12.8
2022-07-28T14:57:16.324Z,12.8
2022-07-28T14:58:03.791Z,12.8
2022-07-28T14:58:51.100Z,12.8
2022-07-28T14:59:38.420Z,12.8
2022-07-28T15:00:25.857Z,11.3
2022-07-28T15:01:13.162Z,11.3
2022-07-28T15:02:00.579Z,11.3
2022-07-28T15:02:48.186Z,11.3
2022-07-28T15:03:36.531Z,11.3
2022-07-28T15:04:24.021Z,11.3
2022-07-28T15:05:11.381Z,11.3
2022-07-28T15:12:43.697Z,11.3
2022-07-28T15:20:16.050Z,11.3
2022-07-28T15:27:48.420Z,11.3
2022-07-28T15:35:20.781Z,11.3
2022-07-28T15:42:53.108Z,11.3
2022-07-28T15:50:25.430Z,11.3
2022-07-28T15:57:57.843Z,11.3
2022-07-28T16:05:30.169Z,11.3
2022-07-28T16:13:03.979Z,9.7
2022-07-28T16:20:36.322Z,9.7
2022-07-28T16:28:08.699Z,9.7
2022-07-28T16:35:41.056Z,9.7
2022-07-28T16:43:13.408Z,9.7
2022-07-28T16:50:45.719Z,9.7
2022-07-28T16:58:18.054Z,9.7
2022-07-28T17:05:50.382Z,9.7
2022-07-28T17:13:22.689Z,8.1
2022-07-28T17:20:55.070Z,8.1
2022-07-28T17:28:27.481Z,8.1
2022-07-28T17:35:59.822Z,8.1